sensor_id;sensor_type;location;lat;lon;timestamp;P1;durP1;ratioP1;P2;durP2;ratioP2
37019;SDS011;22932;52.442;16.896;2022-07-23T01:28:50;9.70;;;9.00;;
37019;SDS011;22932;52.442;16.896;2022-07-23T01:31:20;10.40;;;9.00;;
37019;SDS011;22932;52.442;16.896;2022-07-23T01:33:49;9.10;;;8.30;;
37019;SDS011;22932;52.442;16.896;2022-07-23T01:36:18;9.50;;;8.80;;
37019;SDS011;22932;52.442;16.896;2022-07-23T01:38:49;10.20;;;9.40;;
37019;SDS011;22932;52.442;16.896;2022-07-23T01:41:18;9.00;;;8.30;;
37019;SDS011;22932;52.442;16.896;2022-07-23T01:43:47;8.70;;;8.10;;
37019;SDS011;22932;52.442;16.896;2022-07-23T01:46:17;9.00;;;8.40;;
37019;SDS011;22932;52.442;16.896;2022-07-23T01:48:46;9.00;;;8.40;;
37019;SDS011;22932;52.442;16.896;2022-07-23T01:51:16;9.10;;;8.30;;
37019;SDS011;22932;52.442;16.896;2022-07-23T01:53:45;9.90;;;9.00;;
37019;SDS011;22932;52.442;16.896;2022-07-23T01:56:14;9.60;;;8.80;;
37019;SDS011;22932;52.442;16.896;2022-07-23T01:58:45;9.10;;;8.40;;
37019;SDS011;22932;52.442;16.896;2022-07-23T02:01:14;9.30;;;8.50;;
37019;SDS011;22932;52.442;16.896;2022-07-23T02:03:44;9.30;;;8.50;;
37019;SDS011;22932;52.442;16.896;2022-07-23T02:06:13;10.20;;;9.30;;
37019;SDS011;22932;52.442;16.896;2022-07-23T02:08:42;9.40;;;8.70;;
37019;SDS011;22932;52.442;16.896;2022-07-23T02:11:11;9.90;;;9.10;;
37019;SDS011;22932;52.442;16.896;2022-07-23T02:13:41;8.60;;;7.90;;
37019;SDS011;22932;52.442;16.896;2022-07-23T02:16:10;10.20;;;9.40;;
37019;SDS011;22932;52.442;16.896;2022-07-23T02:18:39;10.50;;;9.40;;
37019;SDS011;22932;52.442;16.896;2022-07-23T02:21:08;9.30;;;8.70;;
37019;SDS011;22932;52.442;16.896;2022-07-23T02:23:37;9.40;;;8.70;;
37019;SDS011;22932;52.442;16.896;2022-07-23T02:26:07;10.20;;;9.20;;
37019;SDS011;22932;52.442;16.896;2022-07-23T02:28:36;10.20;;;9.50;;
37019;SDS011;22932;52.442;16.896;2022-07-23T02:31:05;9.50;;;8.70;;
37019;SDS011;22932;52.442;16.896;2022-07-23T02:33:35;10.20;;;9.40;;
37019;SDS011;22932;52.442;16.896;2022-07-23T02:36:04;10.10;;;9.20;;
37019;SDS011;22932;52.442;16.896;2022-07-23T02:38:34;9.70;;;9.00;;
37019;SDS011;22932;52.442;16.896;2022-07-23T02:41:03;10.30;;;9.50;;
37019;SDS011;22932;52.442;16.896;2022-07-23T02:43:33;9.80;;;9.00;;
37019;SDS011;22932;52.442;16.896;2022-07-23T02:46:02;9.60;;;8.90;;
37019;SDS011;22932;52.442;16.896;2022-07-23T02:48:31;11.00;;;10.00;;
37019;SDS011;22932;52.442;16.896;2022-07-23T02:51:00;10.60;;;9.70;;
37019;SDS011;22932;52.442;16.896;2022-07-23T02:53:30;10.30;;;9.50;;
37019;SDS011;22932;52.442;16.896;2022-07-23T02:55:59;10.80;;;9.90;;
37019;SDS011;22932;52.442;16.896;2022-07-23T02:58:28;10.80;;;9.90;;
37019;SDS011;22932;52.442;16.896;2022-07-23T03:00:57;10.40;;;9.60;;
37019;SDS011;22932;52.442;16.896;2022-07-23T03:03:27;11.70;;;10.80;;
37019;SDS011;22932;52.442;16.896;2022-07-23T03:05:56;10.60;;;9.50;;
37019;SDS011;22932;52.442;16.896;2022-07-23T03:08:25;10.60;;;9.10;;
37019;SDS011;22932;52.442;16.896;2022-07-23T03:10:54;10.80;;;9.80;;
37019;SDS011;22932;52.442;16.896;2022-07-23T03:13:24;10.50;;;9.80;;
37019;SDS011;22932;52.442;16.896;2022-07-23T03:15:54;11.20;;;10.20;;
37019;SDS011;22932;52.442;16.896;2022-07-23T03:18:23;9.70;;;9.10;;
37019;SDS011;22932;52.442;16.896;2022-07-23T03:20:52;10.30;;;9.50;;
37019;SDS011;22932;52.442;16.896;2022-07-23T03:23:21;10.40;;;9.20;;
37019;SDS011;22932;52.442;16.896;2022-07-23T03:25:51;10.70;;;9.80;;
37019;SDS011;22932;52.442;16.896;2022-07-23T03:28:20;10.00;;;9.00;;
37019;SDS011;22932;52.442;16.896;2022-07-23T03:30:49;10.30;;;9.40;;
37019;SDS011;22932;52.442;16.896;2022-07-23T03:33:19;11.00;;;10.10;;
37019;SDS011;22932;52.442;16.896;2022-07-23T03:35:49;10.90;;;10.00;;
37019;SDS011;22932;52.442;16.896;2022-07-23T03:38:18;11.20;;;10.20;;
37019;SDS011;22932;52.442;16.896;2022-07-23T03:40:48;10.30;;;9.40;;
37019;SDS011;22932;52.442;16.896;2022-07-23T03:43:17;10.10;;;9.30;;
37019;SDS011;22932;52.442;16.896;2022-07-23T03:45:46;10.00;;;9.20;;
37019;SDS011;22932;52.442;16.896;2022-07-23T03:48:15;11.00;;;9.80;;
37019;SDS011;22932;52.442;16.896;2022-07-23T03:50:45;11.50;;;10.50;;
37019;SDS011;22932;52.442;16.896;2022-07-23T03:53:14;11.00;;;10.00;;
37019;SDS011;22932;52.442;16.896;2022-07-23T03:55:43;10.60;;;9.50;;
37019;SDS011;22932;52.442;16.896;2022-07-23T03:58:12;10.50;;;9.60;;
37019;SDS011;22932;52.442;16.896;2022-07-23T04:00:42;11.20;;;10.10;;
37019;SDS011;22932;52.442;16.896;2022-07-23T04:03:11;10.00;;;9.20;;
37019;SDS011;22932;52.442;16.896;2022-07-23T04:05:40;11.30;;;10.10;;
37019;SDS011;22932;52.442;16.896;2022-07-23T04:08:09;11.40;;;10.50;;
37019;SDS011;22932;52.442;16.896;2022-07-23T04:10:38;10.30;;;9.50;;
37019;SDS011;22932;52.442;16.896;2022-07-23T04:13:08;10.60;;;9.70;;
37019;SDS011;22932;52.442;16.896;2022-07-23T04:15:37;10.90;;;10.00;;
37019;SDS011;22932;52.442;16.896;2022-07-23T04:18:06;11.30;;;10.40;;
37019;SDS011;22932;52.442;16.896;2022-07-23T04:20:35;11.60;;;10.60;;
37019;SDS011;22932;52.442;16.896;2022-07-23T04:23:04;11.00;;;10.20;;
37019;SDS011;22932;52.442;16.896;2022-07-23T04:25:34;11.30;;;10.40;;
37019;SDS011;22932;52.442;16.896;2022-07-23T04:28:03;11.70;;;10.60;;
37019;SDS011;22932;52.442;16.896;2022-07-23T04:30:33;11.40;;;10.30;;
37019;SDS011;22932;52.442;16.896;2022-07-23T04:33:02;13.40;;;12.30;;
37019;SDS011;22932;52.442;16.896;2022-07-23T04:35:33;12.90;;;12.00;;
37019;SDS011;22932;52.442;16.896;2022-07-23T04:38:03;12.00;;;11.10;;
37019;SDS011;22932;52.442;16.896;2022-07-23T04:40:32;13.20;;;12.00;;
37019;SDS011;22932;52.442;16.896;2022-07-23T04:43:02;12.30;;;11.40;;
37019;SDS011;22932;52.442;16.896;2022-07-23T04:45:31;12.50;;;11.50;;
37019;SDS011;22932;52.442;16.896;2022-07-23T04:48:00;12.40;;;11.40;;
37019;SDS011;22932;52.442;16.896;2022-07-23T04:50:30;13.50;;;12.60;;
37019;SDS011;22932;52.442;16.896;2022-07-23T04:53:00;13.40;;;12.40;;
37019;SDS011;22932;52.442;16.896;2022-07-23T04:55:29;12.50;;;11.50;;
37019;SDS011;22932;52.442;16.896;2022-07-23T04:57:58;13.10;;;12.10;;
37019;SDS011;22932;52.442;16.896;2022-07-23T05:00:27;13.10;;;12.00;;
37019;SDS011;22932;52.442;16.896;2022-07-23T05:02:57;13.50;;;12.60;;
37019;SDS011;22932;52.442;16.896;2022-07-23T05:05:26;13.30;;;12.40;;
37019;SDS011;22932;52.442;16.896;2022-07-23T05:07:55;13.70;;;12.60;;
37019;SDS011;22932;52.442;16.896;2022-07-23T05:10:24;12.80;;;11.80;;
37019;SDS011;22932;52.442;16.896;2022-07-23T05:12:54;13.00;;;11.90;;
37019;SDS011;22932;52.442;16.896;2022-07-23T05:15:23;13.20;;;12.20;;
37019;SDS011;22932;52.442;16.896;2022-07-23T05:17:53;13.80;;;12.70;;
37019;SDS011;22932;52.442;16.896;2022-07-23T05:20:22;14.40;;;13.40;;
37019;SDS011;22932;52.442;16.896;2022-07-23T05:22:52;14.00;;;13.00;;
37019;SDS011;22932;52.442;16.896;2022-07-23T05:25:21;13.90;;;12.80;;
37019;SDS011;22932;52.442;16.896;2022-07-23T05:27:50;13.70;;;12.70;;
37019;SDS011;22932;52.442;16.896;2022-07-23T05:30:20;15.00;;;13.70;;
37019;SDS011;22932;52.442;16.896;2022-07-23T05:32:49;14.70;;;13.20;;
37019;SDS011;22932;52.442;16.896;2022-07-23T05:35:18;14.20;;;13.20;;
37019;SDS011;22932;52.442;16.896;2022-07-23T05:37:48;14.70;;;13.60;;
37019;SDS011;22932;52.442;16.896;2022-07-23T05:40:20;14.20;;;13.10;;
37019;SDS011;22932;52.442;16.896;2022-07-23T05:42:49;14.70;;;13.50;;
37019;SDS011;22932;52.442;16.896;2022-07-23T05:45:18;16.40;;;15.20;;
37019;SDS011;22932;52.442;16.896;2022-07-23T05:47:48;14.70;;;13.50;;
37019;SDS011;22932;52.442;16.896;2022-07-23T05:50:18;13.80;;;12.80;;
37019;SDS011;22932;52.442;16.896;2022-07-23T05:52:47;14.20;;;13.10;;
37019;SDS011;22932;52.442;16.896;2022-07-23T05:55:17;15.10;;;14.00;;
37019;SDS011;22932;52.442;16.896;2022-07-23T05:57:46;14.20;;;13.20;;
37019;SDS011;22932;52.442;16.896;2022-07-23T06:00:15;14.60;;;13.40;;
37019;SDS011;22932;52.442;16.896;2022-07-23T06:02:45;14.70;;;13.40;;
37019;SDS011;22932;52.442;16.896;2022-07-23T06:05:14;14.40;;;13.10;;
37019;SDS011;22932;52.442;16.896;2022-07-23T06:07:44;14.30;;;13.20;;
37019;SDS011;22932;52.442;16.896;2022-07-23T06:10:14;14.90;;;13.80;;
37019;SDS011;22932;52.442;16.896;2022-07-23T06:12:43;15.40;;;14.00;;
37019;SDS011;22932;52.442;16.896;2022-07-23T06:15:12;14.70;;;13.60;;
37019;SDS011;22932;52.442;16.896;2022-07-23T06:17:41;13.90;;;12.80;;
37019;SDS011;22932;52.442;16.896;2022-07-23T06:20:11;14.20;;;13.20;;
37019;SDS011;22932;52.442;16.896;2022-07-23T06:22:40;13.00;;;12.00;;
37019;SDS011;22932;52.442;16.896;2022-07-23T06:25:09;13.10;;;12.10;;
37019;SDS011;22932;52.442;16.896;2022-07-23T06:27:39;11.80;;;11.00;;
37019;SDS011;22932;52.442;16.896;2022-07-23T06:30:09;11.80;;;10.80;;
37019;SDS011;22932;52.442;16.896;2022-07-23T06:32:42;12.00;;;11.00;;
37019;SDS011;22932;52.442;16.896;2022-07-23T06:35:11;12.40;;;11.30;;
37019;SDS011;22932;52.442;16.896;2022-07-23T06:37:40;12.00;;;10.90;;
37019;SDS011;22932;52.442;16.896;2022-07-23T06:40:10;10.60;;;9.90;;
37019;SDS011;22932;52.442;16.896;2022-07-23T06:42:40;10.80;;;10.10;;
37019;SDS011;22932;52.442;16.896;2022-07-23T06:45:09;11.70;;;10.80;;
37019;SDS011;22932;52.442;16.896;2022-07-23T06:47:39;10.80;;;10.00;;
37019;SDS011;22932;52.442;16.896;2022-07-23T06:50:09;12.80;;;11.80;;
37019;SDS011;22932;52.442;16.896;2022-07-23T06:52:38;11.80;;;10.80;;
37019;SDS011;22932;52.442;16.896;2022-07-23T06:55:08;11.60;;;10.70;;
37019;SDS011;22932;52.442;16.896;2022-07-23T06:57:37;11.10;;;10.20;;
37019;SDS011;22932;52.442;16.896;2022-07-23T07:00:08;10.30;;;9.50;;
37019;SDS011;22932;52.442;16.896;2022-07-23T07:02:38;10.20;;;9.40;;
37019;SDS011;22932;52.442;16.896;2022-07-23T07:05:08;9.70;;;8.80;;
37019;SDS011;22932;52.442;16.896;2022-07-23T07:07:37;9.00;;;8.40;;
37019;SDS011;22932;52.442;16.896;2022-07-23T07:10:07;9.10;;;8.50;;
37019;SDS011;22932;52.442;16.896;2022-07-23T07:12:37;9.00;;;8.40;;
37019;SDS011;22932;52.442;16.896;2022-07-23T07:15:07;10.30;;;9.40;;
37019;SDS011;22932;52.442;16.896;2022-07-23T07:17:38;8.40;;;7.70;;
37019;SDS011;22932;52.442;16.896;2022-07-23T07:20:09;8.90;;;8.30;;
37019;SDS011;22932;52.442;16.896;2022-07-23T07:22:39;8.50;;;7.90;;
37019;SDS011;22932;52.442;16.896;2022-07-23T07:25:08;9.30;;;8.50;;
37019;SDS011;22932;52.442;16.896;2022-07-23T07:27:38;8.60;;;8.00;;
37019;SDS011;22932;52.442;16.896;2022-07-23T07:30:08;9.80;;;9.00;;
37019;SDS011;22932;52.442;16.896;2022-07-23T07:32:40;8.60;;;8.00;;
37019;SDS011;22932;52.442;16.896;2022-07-23T07:35:09;9.10;;;8.40;;
37019;SDS011;22932;52.442;16.896;2022-07-23T07:37:38;8.40;;;7.80;;
37019;SDS011;22932;52.442;16.896;2022-07-23T07:40:09;8.40;;;7.70;;
37019;SDS011;22932;52.442;16.896;2022-07-23T07:42:45;8.50;;;7.80;;
37019;SDS011;22932;52.442;16.896;2022-07-23T07:45:15;8.50;;;7.90;;
37019;SDS011;22932;52.442;16.896;2022-07-23T07:47:44;9.60;;;8.70;;
37019;SDS011;22932;52.442;16.896;2022-07-23T07:50:14;9.00;;;8.30;;
37019;SDS011;22932;52.442;16.896;2022-07-23T07:52:44;8.50;;;7.80;;
37019;SDS011;22932;52.442;16.896;2022-07-23T07:55:13;10.00;;;9.00;;
37019;SDS011;22932;52.442;16.896;2022-07-23T07:57:42;9.90;;;9.00;;
37019;SDS011;22932;52.442;16.896;2022-07-23T08:00:12;9.40;;;8.60;;
37019;SDS011;22932;52.442;16.896;2022-07-23T08:02:42;9.80;;;8.90;;
37019;SDS011;22932;52.442;16.896;2022-07-23T08:05:14;7.90;;;7.40;;
37019;SDS011;22932;52.442;16.896;2022-07-23T08:07:45;8.60;;;7.90;;
37019;SDS011;22932;52.442;16.896;2022-07-23T08:10:15;8.70;;;8.00;;
37019;SDS011;22932;52.442;16.896;2022-07-23T08:12:45;8.70;;;8.00;;
37019;SDS011;22932;52.442;16.896;2022-07-23T08:15:16;8.90;;;8.10;;
37019;SDS011;22932;52.442;16.896;2022-07-23T08:17:46;8.60;;;7.80;;
37019;SDS011;22932;52.442;16.896;2022-07-23T08:22:46;8.50;;;7.90;;
37019;SDS011;22932;52.442;16.896;2022-07-23T08:25:22;8.30;;;7.40;;
37019;SDS011;22932;52.442;16.896;2022-07-23T08:27:53;10.70;;;8.70;;
37019;SDS011;22932;52.442;16.896;2022-07-23T08:30:23;7.50;;;7.00;;
37019;SDS011;22932;52.442;16.896;2022-07-23T08:32:53;8.70;;;8.10;;
37019;SDS011;22932;52.442;16.896;2022-07-23T08:35:27;7.90;;;7.30;;
37019;SDS011;22932;52.442;16.896;2022-07-23T08:37:58;7.60;;;7.10;;
37019;SDS011;22932;52.442;16.896;2022-07-23T08:40:29;8.90;;;8.20;;
37019;SDS011;22932;52.442;16.896;2022-07-23T08:43:00;7.80;;;7.30;;
37019;SDS011;22932;52.442;16.896;2022-07-23T08:48:07;8.90;;;8.30;;
37019;SDS011;22932;52.442;16.896;2022-07-23T08:50:38;8.30;;;7.60;;
37019;SDS011;22932;52.442;16.896;2022-07-23T08:53:11;8.70;;;7.90;;
37019;SDS011;22932;52.442;16.896;2022-07-23T08:55:44;8.50;;;8.00;;
37019;SDS011;22932;52.442;16.896;2022-07-23T08:58:14;8.40;;;7.90;;
37019;SDS011;22932;52.442;16.896;2022-07-23T09:00:44;8.20;;;7.60;;
37019;SDS011;22932;52.442;16.896;2022-07-23T09:03:16;8.80;;;8.20;;
37019;SDS011;22932;52.442;16.896;2022-07-23T09:05:47;8.50;;;8.00;;
37019;SDS011;22932;52.442;16.896;2022-07-23T09:08:19;8.10;;;7.60;;
37019;SDS011;22932;52.442;16.896;2022-07-23T09:10:51;9.50;;;8.80;;
37019;SDS011;22932;52.442;16.896;2022-07-23T09:13:34;10.20;;;9.50;;
37019;SDS011;22932;52.442;16.896;2022-07-23T09:16:06;9.40;;;8.70;;
37019;SDS011;22932;52.442;16.896;2022-07-23T09:18:40;9.40;;;8.80;;
37019;SDS011;22932;52.442;16.896;2022-07-23T09:21:15;10.10;;;9.30;;
37019;SDS011;22932;52.442;16.896;2022-07-23T09:23:48;9.30;;;8.60;;
37019;SDS011;22932;52.442;16.896;2022-07-23T09:26:23;11.20;;;10.10;;
37019;SDS011;22932;52.442;16.896;2022-07-23T09:28:57;10.70;;;9.80;;
37019;SDS011;22932;52.442;16.896;2022-07-23T09:31:32;10.70;;;9.70;;
37019;SDS011;22932;52.442;16.896;2022-07-23T09:34:13;9.70;;;9.10;;
37019;SDS011;22932;52.442;16.896;2022-07-23T09:36:45;10.60;;;9.80;;
37019;SDS011;22932;52.442;16.896;2022-07-23T09:39:16;8.80;;;8.20;;
37019;SDS011;22932;52.442;16.896;2022-07-23T09:41:52;10.90;;;10.00;;
37019;SDS011;22932;52.442;16.896;2022-07-23T09:44:22;10.50;;;9.80;;
37019;SDS011;22932;52.442;16.896;2022-07-23T09:46:52;9.90;;;9.20;;
37019;SDS011;22932;52.442;16.896;2022-07-23T09:49:27;11.50;;;10.60;;
37019;SDS011;22932;52.442;16.896;2022-07-23T09:51:57;11.20;;;10.30;;
37019;SDS011;22932;52.442;16.896;2022-07-23T09:54:29;10.30;;;9.60;;
37019;SDS011;22932;52.442;16.896;2022-07-23T09:57:02;11.40;;;10.60;;
37019;SDS011;22932;52.442;16.896;2022-07-23T09:59:34;11.30;;;10.50;;
37019;SDS011;22932;52.442;16.896;2022-07-23T10:02:06;11.20;;;10.00;;
37019;SDS011;22932;52.442;16.896;2022-07-23T10:04:37;12.00;;;11.00;;
37019;SDS011;22932;52.442;16.896;2022-07-23T10:07:08;11.40;;;10.50;;
37019;SDS011;22932;52.442;16.896;2022-07-23T10:09:39;11.40;;;10.60;;
37019;SDS011;22932;52.442;16.896;2022-07-23T10:12:10;10.20;;;9.50;;
37019;SDS011;22932;52.442;16.896;2022-07-23T10:14:48;10.70;;;10.00;;
37019;SDS011;22932;52.442;16.896;2022-07-23T10:17:18;11.60;;;10.70;;
37019;SDS011;22932;52.442;16.896;2022-07-23T10:19:47;9.60;;;8.90;;
37019;SDS011;22932;52.442;16.896;2022-07-23T10:22:19;8.40;;;7.80;;
37019;SDS011;22932;52.442;16.896;2022-07-23T10:24:56;9.30;;;8.60;;
37019;SDS011;22932;52.442;16.896;2022-07-23T10:27:43;9.60;;;8.70;;
37019;SDS011;22932;52.442;16.896;2022-07-23T10:30:41;8.90;;;8.20;;
37019;SDS011;22932;52.442;16.896;2022-07-23T10:33:17;9.70;;;9.00;;
37019;SDS011;22932;52.442;16.896;2022-07-23T10:35:58;8.80;;;8.10;;
37019;SDS011;22932;52.442;16.896;2022-07-23T10:38:37;9.90;;;9.00;;
37019;SDS011;22932;52.442;16.896;2022-07-23T10:41:33;8.90;;;8.20;;
37019;SDS011;22932;52.442;16.896;2022-07-23T10:44:10;8.50;;;7.90;;
37019;SDS011;22932;52.442;16.896;2022-07-23T10:49:40;9.40;;;8.80;;
37019;SDS011;22932;52.442;16.896;2022-07-23T10:52:16;9.50;;;8.90;;
37019;SDS011;22932;52.442;16.896;2022-07-23T10:54:50;9.00;;;8.40;;
37019;SDS011;22932;52.442;16.896;2022-07-23T10:57:22;8.90;;;8.20;;
37019;SDS011;22932;52.442;16.896;2022-07-23T11:02:42;9.90;;;9.20;;
37019;SDS011;22932;52.442;16.896;2022-07-23T11:05:14;9.00;;;8.40;;
37019;SDS011;22932;52.442;16.896;2022-07-23T11:10:52;9.10;;;8.50;;
37019;SDS011;22932;52.442;16.896;2022-07-23T11:16:19;9.00;;;8.40;;
37019;SDS011;22932;52.442;16.896;2022-07-23T11:18:59;7.60;;;7.10;;
37019;SDS011;22932;52.442;16.896;2022-07-23T11:21:44;9.60;;;9.00;;
37019;SDS011;22932;52.442;16.896;2022-07-23T11:24:20;8.80;;;8.20;;
37019;SDS011;22932;52.442;16.896;2022-07-23T11:27:01;9.50;;;8.80;;
37019;SDS011;22932;52.442;16.896;2022-07-23T11:29:47;10.70;;;9.60;;
37019;SDS011;22932;52.442;16.896;2022-07-23T11:32:24;9.70;;;9.10;;
37019;SDS011;22932;52.442;16.896;2022-07-23T11:35:01;9.40;;;8.80;;
37019;SDS011;22932;52.442;16.896;2022-07-23T11:37:45;9.30;;;8.60;;
37019;SDS011;22932;52.442;16.896;2022-07-23T11:40:16;9.00;;;8.30;;
37019;SDS011;22932;52.442;16.896;2022-07-23T11:42:58;11.20;;;10.40;;
37019;SDS011;22932;52.442;16.896;2022-07-23T11:45:32;9.50;;;8.80;;
37019;SDS011;22932;52.442;16.896;2022-07-23T11:48:03;7.20;;;6.70;;
37019;SDS011;22932;52.442;16.896;2022-07-23T11:50:33;9.90;;;9.20;;
37019;SDS011;22932;52.442;16.896;2022-07-23T11:53:03;11.20;;;10.30;;
37019;SDS011;22932;52.442;16.896;2022-07-23T11:55:32;9.80;;;9.20;;
37019;SDS011;22932;52.442;16.896;2022-07-23T11:58:02;9.20;;;8.60;;
37019;SDS011;22932;52.442;16.896;2022-07-23T12:00:32;8.80;;;8.20;;
37019;SDS011;22932;52.442;16.896;2022-07-23T12:03:02;9.30;;;8.70;;
37019;SDS011;22932;52.442;16.896;2022-07-23T12:05:33;8.80;;;8.30;;
37019;SDS011;22932;52.442;16.896;2022-07-23T12:08:04;8.50;;;8.00;;
37019;SDS011;22932;52.442;16.896;2022-07-23T12:10:35;8.10;;;7.60;;
37019;SDS011;22932;52.442;16.896;2022-07-23T12:13:07;8.50;;;8.00;;
37019;SDS011;22932;52.442;16.896;2022-07-23T12:15:39;9.10;;;8.40;;
37019;SDS011;22932;52.442;16.896;2022-07-23T12:18:10;8.30;;;7.70;;
37019;SDS011;22932;52.442;16.896;2022-07-23T12:20:41;7.90;;;7.40;;
37019;SDS011;22932;52.442;16.896;2022-07-23T12:23:13;7.50;;;7.00;;
37019;SDS011;22932;52.442;16.896;2022-07-23T12:25:44;7.90;;;7.20;;
37019;SDS011;22932;52.442;16.896;2022-07-23T12:28:16;7.90;;;7.40;;
37019;SDS011;22932;52.442;16.896;2022-07-23T12:30:47;8.00;;;7.40;;
37019;SDS011;22932;52.442;16.896;2022-07-23T12:33:27;7.20;;;6.70;;
37019;SDS011;22932;52.442;16.896;2022-07-23T12:35:58;7.00;;;6.40;;
37019;SDS011;22932;52.442;16.896;2022-07-23T12:38:37;7.50;;;7.00;;
37019;SDS011;22932;52.442;16.896;2022-07-23T12:41:10;6.80;;;6.40;;
37019;SDS011;22932;52.442;16.896;2022-07-23T12:43:40;7.60;;;7.10;;
37019;SDS011;22932;52.442;16.896;2022-07-23T20:47:05;7.10;;;6.60;;
37019;SDS011;22932;52.442;16.896;2022-07-23T20:49:35;7.70;;;7.20;;
37019;SDS011;22932;52.442;16.896;2022-07-23T20:52:04;7.70;;;6.80;;
37019;SDS011;22932;52.442;16.896;2022-07-23T20:54:33;9.20;;;8.30;;
37019;SDS011;22932;52.442;16.896;2022-07-23T20:57:03;8.40;;;7.70;;
37019;SDS011;22932;52.442;16.896;2022-07-23T20:59:32;9.50;;;7.40;;
37019;SDS011;22932;52.442;16.896;2022-07-23T21:02:03;8.20;;;7.30;;
37019;SDS011;22932;52.442;16.896;2022-07-23T21:04:33;8.00;;;7.20;;
37019;SDS011;22932;52.442;16.896;2022-07-23T21:07:02;9.10;;;7.80;;
37019;SDS011;22932;52.442;16.896;2022-07-23T21:09:31;8.60;;;7.80;;
37019;SDS011;22932;52.442;16.896;2022-07-23T21:12:00;9.50;;;8.30;;
37019;SDS011;22932;52.442;16.896;2022-07-23T21:14:30;8.60;;;8.00;;
37019;SDS011;22932;52.442;16.896;2022-07-23T21:16:59;8.70;;;8.00;;
37019;SDS011;22932;52.442;16.896;2022-07-23T21:19:28;8.50;;;7.80;;
37019;SDS011;22932;52.442;16.896;2022-07-23T21:21:58;8.10;;;7.40;;
37019;SDS011;22932;52.442;16.896;2022-07-23T21:24:27;8.60;;;7.80;;
37019;SDS011;22932;52.442;16.896;2022-07-23T21:26:57;9.70;;;8.50;;
37019;SDS011;22932;52.442;16.896;2022-07-23T21:29:26;9.90;;;9.00;;
37019;SDS011;22932;52.442;16.896;2022-07-23T21:31:55;10.90;;;9.80;;
37019;SDS011;22932;52.442;16.896;2022-07-23T21:34:25;9.90;;;9.10;;
37019;SDS011;22932;52.442;16.896;2022-07-23T21:36:54;9.70;;;7.70;;
37019;SDS011;22932;52.442;16.896;2022-07-23T21:39:23;8.00;;;7.30;;
37019;SDS011;22932;52.442;16.896;2022-07-23T21:41:53;7.70;;;7.10;;
37019;SDS011;22932;52.442;16.896;2022-07-23T21:44:23;8.00;;;7.40;;
37019;SDS011;22932;52.442;16.896;2022-07-23T21:46:52;8.70;;;8.00;;
37019;SDS011;22932;52.442;16.896;2022-07-23T21:49:22;8.20;;;7.60;;
37019;SDS011;22932;52.442;16.896;2022-07-23T21:51:51;9.20;;;8.00;;
37019;SDS011;22932;52.442;16.896;2022-07-23T21:54:20;7.60;;;7.10;;
37019;SDS011;22932;52.442;16.896;2022-07-23T21:56:49;8.50;;;7.80;;
37019;SDS011;22932;52.442;16.896;2022-07-23T21:59:19;9.60;;;8.30;;
37019;SDS011;22932;52.442;16.896;2022-07-23T22:01:48;8.60;;;7.70;;
37019;SDS011;22932;52.442;16.896;2022-07-23T22:04:18;8.00;;;7.40;;
37019;SDS011;22932;52.442;16.896;2022-07-23T22:06:47;8.60;;;7.80;;
37019;SDS011;22932;52.442;16.896;2022-07-23T22:09:16;7.90;;;7.40;;
37019;SDS011;22932;52.442;16.896;2022-07-23T22:11:46;7.70;;;7.10;;
37019;SDS011;22932;52.442;16.896;2022-07-23T22:14:15;8.10;;;7.40;;
37019;SDS011;22932;52.442;16.896;2022-07-23T22:16:44;7.50;;;6.90;;
37019;SDS011;22932;52.442;16.896;2022-07-23T22:19:13;7.40;;;6.80;;
37019;SDS011;22932;52.442;16.896;2022-07-23T22:21:43;7.00;;;6.30;;
37019;SDS011;22932;52.442;16.896;2022-07-23T22:24:12;6.80;;;6.20;;
37019;SDS011;22932;52.442;16.896;2022-07-23T22:26:43;7.10;;;6.40;;
37019;SDS011;22932;52.442;16.896;2022-07-23T22:29:14;6.90;;;6.10;;
37019;SDS011;22932;52.442;16.896;2022-07-23T22:31:43;6.60;;;6.10;;
37019;SDS011;22932;52.442;16.896;2022-07-23T22:34:12;5.60;;;5.10;;
37019;SDS011;22932;52.442;16.896;2022-07-23T22:36:42;6.40;;;5.80;;
37019;SDS011;22932;52.442;16.896;2022-07-23T22:39:11;5.70;;;5.40;;
37019;SDS011;22932;52.442;16.896;2022-07-23T22:41:40;6.60;;;5.80;;
37019;SDS011;22932;52.442;16.896;2022-07-23T22:44:10;5.90;;;5.10;;
37019;SDS011;22932;52.442;16.896;2022-07-23T22:46:39;5.80;;;5.30;;
37019;SDS011;22932;52.442;16.896;2022-07-23T22:49:08;6.10;;;5.30;;
37019;SDS011;22932;52.442;16.896;2022-07-23T22:51:38;5.50;;;5.00;;
37019;SDS011;22932;52.442;16.896;2022-07-23T22:54:07;5.00;;;4.50;;
37019;SDS011;22932;52.442;16.896;2022-07-23T22:56:36;5.20;;;4.80;;
37019;SDS011;22932;52.442;16.896;2022-07-23T22:59:06;4.40;;;4.10;;
37019;SDS011;22932;52.442;16.896;2022-07-23T23:01:35;5.00;;;4.40;;
37019;SDS011;22932;52.442;16.896;2022-07-23T23:04:04;5.10;;;4.40;;
37019;SDS011;22932;52.442;16.896;2022-07-23T23:06:34;4.80;;;4.40;;
37019;SDS011;22932;52.442;16.896;2022-07-23T23:09:03;4.50;;;4.20;;
37019;SDS011;22932;52.442;16.896;2022-07-23T23:11:32;4.90;;;4.50;;
37019;SDS011;22932;52.442;16.896;2022-07-23T23:14:02;5.40;;;4.10;;
37019;SDS011;22932;52.442;16.896;2022-07-23T23:16:31;4.50;;;4.10;;
37019;SDS011;22932;52.442;16.896;2022-07-23T23:19:00;4.00;;;3.70;;
37019;SDS011;22932;52.442;16.896;2022-07-23T23:21:29;4.00;;;3.70;;
37019;SDS011;22932;52.442;16.896;2022-07-23T23:23:59;4.80;;;4.30;;
37019;SDS011;22932;52.442;16.896;2022-07-23T23:26:28;4.60;;;4.20;;
37019;SDS011;22932;52.442;16.896;2022-07-23T23:28:58;3.90;;;3.70;;
37019;SDS011;22932;52.442;16.896;2022-07-23T23:31:27;5.10;;;4.00;;
37019;SDS011;22932;52.442;16.896;2022-07-23T23:33:57;4.10;;;3.80;;
37019;SDS011;22932;52.442;16.896;2022-07-23T23:36:26;6.00;;;4.70;;
37019;SDS011;22932;52.442;16.896;2022-07-23T23:38:55;4.60;;;4.20;;
37019;SDS011;22932;52.442;16.896;2022-07-23T23:41:25;5.30;;;4.90;;
37019;SDS011;22932;52.442;16.896;2022-07-23T23:43:54;6.70;;;5.40;;
37019;SDS011;22932;52.442;16.896;2022-07-23T23:46:24;5.60;;;5.20;;
37019;SDS011;22932;52.442;16.896;2022-07-23T23:48:54;5.60;;;5.00;;
37019;SDS011;22932;52.442;16.896;2022-07-23T23:51:23;6.00;;;5.40;;
37019;SDS011;22932;52.442;16.896;2022-07-23T23:53:53;6.30;;;5.50;;
37019;SDS011;22932;52.442;16.896;2022-07-23T23:56:22;6.40;;;5.80;;
37019;SDS011;22932;52.442;16.896;2022-07-23T23:58:51;7.00;;;6.40;;
